createdAt,value
2017-03-05T00:00:00.198Z,9.5
2017-03-05T00:00:10.201Z,9.5
2017-03-05T00:00:19.764Z,9.5
2017-03-05T00:00:30.178Z,9.5
2017-03-05T00:00:40.168Z,9.5
2017-03-05T00:00:50.190Z,9.5
2017-03-05T00:01:00.461Z,9.5
2017-03-05T00:01:10.153Z,9.5
2017-03-05T00:01:20.154Z,9.5
2017-03-05T00:01:29.722Z,9.5
2017-03-05T00:01:40.380Z,9.5
2017-03-05T00:01:50.162Z,9.5
2017-03-05T00:02:00.121Z,9.5
2017-03-05T00:02:10.125Z,9.5
2017-03-05T00:02:20.118Z,9.6
2017-03-05T00:02:30.677Z,9.5
2017-03-05T00:02:40.102Z,9.5
2017-03-05T00:02:50.107Z,9.5
2017-03-05T00:03:00.088Z,9.5
2017-03-05T00:03:10.078Z,9.5
2017-03-05T00:03:20.075Z,9.5
2017-03-05T00:03:30.080Z,9.5
2017-03-05T00:03:40.345Z,9.6
2017-03-05T00:03:50.056Z,9.6
2017-03-05T00:03:59.651Z,9.6
2017-03-05T00:04:10.058Z,9.6
2017-03-05T00:04:20.616Z,9.5
2017-03-05T00:04:30.038Z,9.5
2017-03-05T00:04:40.049Z,9.5
2017-03-05T00:04:50.031Z,9.5
2017-03-05T00:04:59.594Z,9.5
2017-03-05T00:05:10.013Z,9.5
2017-03-05T00:05:19.581Z,9.5
2017-03-05T00:05:29.998Z,9.5
2017-03-05T00:05:40.550Z,9.6
2017-03-05T00:05:50.015Z,9.6
2017-03-05T00:05:59.976Z,9.6
2017-03-05T00:06:09.571Z,9.5
2017-03-05T00:06:19.972Z,9.5
2017-03-05T00:06:29.980Z,9.5
2017-03-05T00:06:39.956Z,9.5
2017-03-05T00:06:49.956Z,9.5
2017-03-05T00:07:00.230Z,9.5
2017-03-05T00:07:09.514Z,9.5
2017-03-05T00:07:19.931Z,9.6
2017-03-05T00:07:29.936Z,9.6
2017-03-05T00:07:39.919Z,9.6
2017-03-05T00:07:49.910Z,9.6
2017-03-05T00:07:59.911Z,9.6
2017-03-05T00:08:09.910Z,9.6
2017-03-05T00:08:19.479Z,9.6
2017-03-05T00:08:29.900Z,9.6
2017-03-05T00:08:39.881Z,9.6
2017-03-05T00:08:49.889Z,9.6
2017-03-05T00:08:59.870Z,9.5
2017-03-05T00:09:09.889Z,9.5
2017-03-05T00:09:20.134Z,9.5
2017-03-05T00:09:29.850Z,9.5
2017-03-05T00:09:39.440Z,9.5
2017-03-05T00:09:49.465Z,9.6
2017-03-05T00:09:59.832Z,9.5
2017-03-05T00:10:09.841Z,9.6
2017-03-05T00:10:19.839Z,9.6
2017-03-05T00:10:29.824Z,9.6
2017-03-05T00:10:39.386Z,9.6
2017-03-05T00:10:49.888Z,9.6
2017-03-05T00:10:59.812Z,9.5
2017-03-05T00:11:09.373Z,9.5
2017-03-05T00:11:19.362Z,9.5
2017-03-05T00:11:30.066Z,9.5
2017-03-05T00:11:39.775Z,9.5
2017-03-05T00:11:49.780Z,9.5
2017-03-05T00:11:59.766Z,9.5
2017-03-05T00:12:09.776Z,9.5
2017-03-05T00:12:20.052Z,9.5
2017-03-05T00:12:29.757Z,9.5
2017-03-05T00:12:39.745Z,9.5
2017-03-05T00:12:49.727Z,9.5
2017-03-05T00:12:59.744Z,9.5
2017-03-05T00:13:09.737Z,9.5
2017-03-05T00:13:19.740Z,9.5
2017-03-05T00:13:29.720Z,9.5
2017-03-05T00:13:39.724Z,9.5
2017-03-05T00:13:49.967Z,9.5
2017-03-05T00:13:59.694Z,9.5
2017-03-05T00:14:09.679Z,9.5
2017-03-05T00:14:19.708Z,9.6
2017-03-05T00:14:29.697Z,9.6
2017-03-05T00:14:39.972Z,9.6
2017-03-05T00:14:49.657Z,9.6
2017-03-05T00:14:59.664Z,9.6
2017-03-05T00:15:09.652Z,9.6
2017-03-05T00:15:19.925Z,9.6
2017-03-05T00:15:29.632Z,9.6
2017-03-05T00:15:39.652Z,9.6
2017-03-05T00:15:49.632Z,9.6
2017-03-05T00:15:59.637Z,9.6
2017-03-05T00:16:09.605Z,9.6
2017-03-05T00:16:19.605Z,9.6
2017-03-05T00:16:29.878Z,9.6
2017-03-05T00:16:39.602Z,9.6
2017-03-05T00:16:49.590Z,9.6
2017-03-05T00:16:59.576Z,9.6
2017-03-05T00:17:09.586Z,9.6
2017-03-05T00:17:19.161Z,9.6
2017-03-05T00:17:29.567Z,9.6
2017-03-05T00:17:39.564Z,9.6
2017-03-05T00:17:49.824Z,9.6
2017-03-05T00:17:59.552Z,9.6
2017-03-05T00:18:09.541Z,9.6
2017-03-05T00:18:19.137Z,9.6
2017-03-05T00:18:29.104Z,9.6
2017-03-05T00:18:39.813Z,9.6
2017-03-05T00:18:49.516Z,9.6
2017-03-05T00:18:59.509Z,9.6
2017-03-05T00:19:09.523Z,9.6
2017-03-05T00:19:19.500Z,9.5
2017-03-05T00:19:29.503Z,9.6
2017-03-05T00:19:39.494Z,9.6
2017-03-05T00:19:49.490Z,9.6
2017-03-05T00:19:59.523Z,9.6
2017-03-05T00:20:09.467Z,9.5
2017-03-05T00:20:19.458Z,9.5
2017-03-05T00:20:29.034Z,9.5
2017-03-05T00:20:39.446Z,9.5
2017-03-05T00:20:49.024Z,9.6
2017-03-05T00:20:59.748Z,9.6
2017-03-05T00:21:09.427Z,9.6
2017-03-05T00:21:19.434Z,9.6
2017-03-05T00:21:29.019Z,9.6
2017-03-05T00:21:39.652Z,9.6
2017-03-05T00:21:48.989Z,9.6
2017-03-05T00:21:59.423Z,9.6
2017-03-05T00:22:09.402Z,9.6
2017-03-05T00:22:19.404Z,9.6
2017-03-05T00:22:29.383Z,9.6
2017-03-05T00:22:39.645Z,9.6
2017-03-05T00:22:48.944Z,9.6
2017-03-05T00:22:59.373Z,9.6
2017-03-05T00:23:09.380Z,9.6
2017-03-05T00:23:19.356Z,9.6
2017-03-05T00:23:28.934Z,9.6
2017-03-05T00:23:39.341Z,9.6
2017-03-05T00:23:48.917Z,9.6
2017-03-05T00:23:58.906Z,9.6
2017-03-05T00:24:09.348Z,9.6
2017-03-05T00:24:19.309Z,9.6
2017-03-05T00:24:29.313Z,9.6
2017-03-05T00:24:39.310Z,9.6
2017-03-05T00:24:49.312Z,9.6
2017-03-05T00:24:59.292Z,9.6
2017-03-05T00:25:09.278Z,9.6
2017-03-05T00:25:19.571Z,9.6
2017-03-05T00:25:28.871Z,9.6
2017-03-05T00:25:39.286Z,9.6
2017-03-05T00:25:49.277Z,9.6
2017-03-05T00:25:59.273Z,9.6
2017-03-05T00:26:08.820Z,9.6
2017-03-05T00:26:19.236Z,9.6
2017-03-05T00:26:29.267Z,9.6
2017-03-05T00:26:39.529Z,9.6
2017-03-05T00:26:49.226Z,9.6
2017-03-05T00:26:58.804Z,9.6
2017-03-05T00:27:09.211Z,9.6
2017-03-05T00:27:18.790Z,9.6
2017-03-05T00:27:29.490Z,9.6
2017-03-05T00:27:39.193Z,9.6
2017-03-05T00:27:49.207Z,9.6
2017-03-05T00:27:59.184Z,9.6
2017-03-05T00:28:09.172Z,9.6
2017-03-05T00:28:18.745Z,9.6
2017-03-05T00:28:29.165Z,9.6
2017-03-05T00:28:39.147Z,9.6
2017-03-05T00:28:49.157Z,9.6
2017-03-05T00:28:59.150Z,9.6
2017-03-05T00:29:09.138Z,9.6
2017-03-05T00:29:19.154Z,9.6
2017-03-05T00:29:29.127Z,9.6
2017-03-05T00:29:39.121Z,9.6
2017-03-05T00:29:49.124Z,9.6
2017-03-05T00:29:58.980Z,9.6
2017-03-05T00:30:09.124Z,9.6
2017-03-05T00:30:19.111Z,9.6
2017-03-05T00:30:29.373Z,9.6
2017-03-05T00:30:39.078Z,9.6
2017-03-05T00:30:49.072Z,9.6
2017-03-05T00:30:58.675Z,9.6
2017-03-05T00:31:08.939Z,9.6
2017-03-05T00:31:18.656Z,9.6
2017-03-05T00:31:29.049Z,9.6
2017-03-05T00:31:39.382Z,9.6
2017-03-05T00:31:49.034Z,9.6
2017-03-05T00:31:59.029Z,9.6
2017-03-05T00:32:09.317Z,9.6
2017-03-05T00:32:18.599Z,9.6
2017-03-05T00:32:29.021Z,9.6
2017-03-05T00:32:39.036Z,9.6
2017-03-05T00:32:49.001Z,9.6
2017-03-05T00:32:58.993Z,9.6
2017-03-05T00:33:08.983Z,9.6
2017-03-05T00:33:18.568Z,9.6
2017-03-05T00:33:28.980Z,9.6
2017-03-05T00:33:38.986Z,9.6
2017-03-05T00:33:49.026Z,9.6
2017-03-05T00:33:58.956Z,9.6
2017-03-05T00:34:08.968Z,9.6
2017-03-05T00:34:18.534Z,9.6
2017-03-05T00:34:28.933Z,9.6
2017-03-05T00:34:38.945Z,9.6
2017-03-05T00:34:48.929Z,9.6
2017-03-05T00:34:58.955Z,9.6
2017-03-05T00:35:08.926Z,9.6
2017-03-05T00:35:18.485Z,9.6
2017-03-05T00:35:28.933Z,9.6
2017-03-05T00:35:38.925Z,9.6
2017-03-05T00:35:48.482Z,9.6
2017-03-05T00:35:58.882Z,9.6
2017-03-05T00:36:08.480Z,9.6
2017-03-05T00:36:18.472Z,9.6
2017-03-05T00:36:28.884Z,9.6
2017-03-05T00:36:39.150Z,9.6
2017-03-05T00:36:48.859Z,9.6
2017-03-05T00:36:58.871Z,9.6
2017-03-05T00:37:09.138Z,9.6
2017-03-05T00:37:18.419Z,9.6
2017-03-05T00:37:28.841Z,9.6
2017-03-05T00:37:38.840Z,9.6
2017-03-05T00:37:49.099Z,9.6
2017-03-05T00:37:59.105Z,9.6
2017-03-05T00:38:08.810Z,9.6
2017-03-05T00:38:18.394Z,9.6
2017-03-05T00:38:28.795Z,9.6
2017-03-05T00:38:38.793Z,9.6
2017-03-05T00:38:48.786Z,9.6
2017-03-05T00:38:58.791Z,9.6
2017-03-05T00:39:08.790Z,9.5
2017-03-05T00:39:18.367Z,9.5
2017-03-05T00:39:28.751Z,9.5
2017-03-05T00:39:38.751Z,9.6
2017-03-05T00:39:48.745Z,9.6
2017-03-05T00:39:58.348Z,9.6
2017-03-05T00:40:09.026Z,9.6
2017-03-05T00:40:18.304Z,9.6
2017-03-05T00:40:28.309Z,9.6
2017-03-05T00:40:38.722Z,9.6
2017-03-05T00:40:48.720Z,9.6
2017-03-05T00:40:58.717Z,9.6
2017-03-05T00:41:08.286Z,9.6
2017-03-05T00:41:18.294Z,9.6
2017-03-05T00:41:28.696Z,9.6
2017-03-05T00:41:38.682Z,9.6
2017-03-05T00:41:48.674Z,9.6
2017-03-05T00:41:58.665Z,9.6
2017-03-05T00:42:08.688Z,9.6
2017-03-05T00:42:18.524Z,9.6
2017-03-05T00:42:28.662Z,9.6
2017-03-05T00:42:38.223Z,9.6
2017-03-05T00:42:48.646Z,9.6
2017-03-05T00:42:58.651Z,9.5
2017-03-05T00:43:08.650Z,9.6
2017-03-05T00:43:18.627Z,9.5
2017-03-05T00:43:28.619Z,9.6
2017-03-05T00:43:38.622Z,9.6
2017-03-05T00:43:48.596Z,9.6
2017-03-05T00:43:58.607Z,9.5
2017-03-05T00:44:08.169Z,9.5
2017-03-05T00:44:18.593Z,9.4
2017-03-05T00:44:28.574Z,9.4
2017-03-05T00:44:38.583Z,9.4
2017-03-05T00:44:48.838Z,9.4
2017-03-05T00:44:58.556Z,9.4
2017-03-05T00:45:08.550Z,9.4
2017-03-05T00:45:18.138Z,9.5
2017-03-05T00:45:28.809Z,9.5
2017-03-05T00:45:38.535Z,9.5
2017-03-05T00:45:48.547Z,9.5
2017-03-05T00:45:58.522Z,9.5
2017-03-05T00:46:08.126Z,9.5
2017-03-05T00:46:18.091Z,9.5
2017-03-05T00:46:28.088Z,9.5
2017-03-05T00:46:38.354Z,9.5
2017-03-05T00:46:48.512Z,9.5
2017-03-05T00:46:58.494Z,9.5
2017-03-05T00:47:08.484Z,9.5
2017-03-05T00:47:18.486Z,9.5
2017-03-05T00:47:28.064Z,9.5
2017-03-05T00:47:38.461Z,9.5
2017-03-05T00:47:48.464Z,9.5
2017-03-05T00:47:58.725Z,9.5
2017-03-05T00:48:08.441Z,9.6
2017-03-05T00:48:18.047Z,9.6
2017-03-05T00:48:28.011Z,9.6
2017-03-05T00:48:38.417Z,9.6
2017-03-05T00:48:48.417Z,9.6
2017-03-05T00:48:58.426Z,9.6
2017-03-05T00:49:08.412Z,9.5
2017-03-05T00:49:17.990Z,9.5
2017-03-05T00:49:27.988Z,9.5
2017-03-05T00:49:38.385Z,9.5
2017-03-05T00:49:48.384Z,9.5
2017-03-05T00:49:58.387Z,9.5
2017-03-05T00:50:07.578Z,9.6
2017-03-05T00:50:18.376Z,9.6
2017-03-05T00:50:28.359Z,9.6
2017-03-05T00:50:38.353Z,9.6
2017-03-05T00:50:48.352Z,9.6
2017-03-05T00:50:58.348Z,9.6
2017-03-05T00:51:08.336Z,9.6
2017-03-05T00:51:17.924Z,9.6
2017-03-05T00:51:28.321Z,9.6
2017-03-05T00:51:38.582Z,9.6
2017-03-05T00:51:48.604Z,9.5
2017-03-05T00:51:57.904Z,9.5
2017-03-05T00:52:07.886Z,9.5
2017-03-05T00:52:17.884Z,9.5
2017-03-05T00:52:28.287Z,9.5
2017-03-05T00:52:38.303Z,9.5
2017-03-05T00:52:48.272Z,9.5
2017-03-05T00:52:58.294Z,9.5
2017-03-05T00:53:08.266Z,9.5
2017-03-05T00:53:17.841Z,9.5
2017-03-05T00:53:28.561Z,9.6
2017-03-05T00:53:38.263Z,9.6
2017-03-05T00:53:48.246Z,9.6
2017-03-05T00:53:58.247Z,9.6
2017-03-05T00:54:07.536Z,9.6
2017-03-05T00:54:17.809Z,9.6
2017-03-05T00:54:27.798Z,9.6
2017-03-05T00:54:38.214Z,9.6
2017-03-05T00:54:48.213Z,9.6
2017-03-05T00:54:58.194Z,9.6
2017-03-05T00:55:07.798Z,9.6
2017-03-05T00:55:17.761Z,9.6
2017-03-05T00:55:28.181Z,9.6
2017-03-05T00:55:38.169Z,9.6
2017-03-05T00:55:48.187Z,9.6
2017-03-05T00:55:57.745Z,9.6
2017-03-05T00:56:08.162Z,9.6
2017-03-05T00:56:18.159Z,9.6
2017-03-05T00:56:28.145Z,9.6
2017-03-05T00:56:38.404Z,9.6
2017-03-05T00:56:48.127Z,9.5
2017-03-05T00:56:58.137Z,9.6
2017-03-05T00:57:08.411Z,9.5
2017-03-05T00:57:17.692Z,9.5
2017-03-05T00:57:28.121Z,9.5
2017-03-05T00:57:38.093Z,9.6
2017-03-05T00:57:48.111Z,9.6
2017-03-05T00:57:58.080Z,9.6
2017-03-05T00:58:08.085Z,9.6
2017-03-05T00:58:17.653Z,9.5
2017-03-05T00:58:27.653Z,9.5
2017-03-05T00:58:37.637Z,9.5
2017-03-05T00:58:48.083Z,9.5
2017-03-05T00:58:58.057Z,9.5
2017-03-05T00:59:08.062Z,9.5
2017-03-05T00:59:18.032Z,9.5
2017-03-05T00:59:27.611Z,9.5
2017-03-05T00:59:38.058Z,9.5
2017-03-05T00:59:48.019Z,9.5
2017-03-05T00:59:58.014Z,9.5
2017-03-05T01:00:07.171Z,9.6
2017-03-05T01:00:18.001Z,9.6
2017-03-05T01:00:27.577Z,9.6
2017-03-05T01:00:38.008Z,9.6
2017-03-05T01:00:47.979Z,9.5
2017-03-05T01:00:57.989Z,9.5
2017-03-05T01:01:08.265Z,9.5
2017-03-05T01:01:17.971Z,9.5
2017-03-05T01:01:27.548Z,9.5
2017-03-05T01:01:37.995Z,9.5
2017-03-05T01:01:47.950Z,9.5
2017-03-05T01:01:58.501Z,9.5
2017-03-05T01:02:07.519Z,9.6
2017-03-05T01:02:17.516Z,9.6
2017-03-05T01:02:27.929Z,9.5
2017-03-05T01:02:37.943Z,9.5
2017-03-05T01:02:48.198Z,9.5
2017-03-05T01:02:57.918Z,9.5
2017-03-05T01:03:07.907Z,9.5
2017-03-05T01:03:17.903Z,9.5
2017-03-05T01:03:27.890Z,9.5
2017-03-05T01:03:37.887Z,9.5
2017-03-05T01:03:47.940Z,9.5
2017-03-05T01:03:57.887Z,9.5
2017-03-05T01:04:08.151Z,9.5
2017-03-05T01:04:17.879Z,9.5
2017-03-05T01:04:27.864Z,9.5
2017-03-05T01:04:37.842Z,9.5
2017-03-05T01:04:47.875Z,9.6
2017-03-05T01:04:57.832Z,9.5
2017-03-05T01:05:07.870Z,9.5
2017-03-05T01:05:17.407Z,9.5
2017-03-05T01:05:27.811Z,9.5
2017-03-05T01:05:37.816Z,9.6
2017-03-05T01:05:47.798Z,9.6
2017-03-05T01:05:57.794Z,9.6
2017-03-05T01:06:07.378Z,9.6
2017-03-05T01:06:17.794Z,9.6
2017-03-05T01:06:27.778Z,9.6
2017-03-05T01:06:37.769Z,9.6
2017-03-05T01:06:48.071Z,9.6
2017-03-05T01:06:57.757Z,9.6
2017-03-05T01:07:07.776Z,9.6
2017-03-05T01:07:17.759Z,9.6
2017-03-05T01:07:27.733Z,9.6
2017-03-05T01:07:37.313Z,9.6
2017-03-05T01:07:47.732Z,9.6
2017-03-05T01:07:57.725Z,9.6
2017-03-05T01:08:07.728Z,9.6
2017-03-05T01:08:17.718Z,9.6
2017-03-05T01:08:27.718Z,9.6
2017-03-05T01:08:37.714Z,9.6
2017-03-05T01:08:47.271Z,9.6
2017-03-05T01:08:57.725Z,9.6
2017-03-05T01:09:07.686Z,9.6
2017-03-05T01:09:17.674Z,9.6
2017-03-05T01:09:27.672Z,9.6
2017-03-05T01:09:37.667Z,9.6
2017-03-05T01:09:47.648Z,9.6
2017-03-05T01:09:57.655Z,9.6
2017-03-05T01:10:07.218Z,9.6
2017-03-05T01:10:17.216Z,9.6
2017-03-05T01:10:27.634Z,9.6
2017-03-05T01:10:37.632Z,9.6
2017-03-05T01:10:47.631Z,9.6
2017-03-05T01:10:57.609Z,9.6
2017-03-05T01:11:07.200Z,9.6
2017-03-05T01:11:17.607Z,9.6
2017-03-05T01:11:27.594Z,9.6
2017-03-05T01:11:37.188Z,9.6
2017-03-05T01:11:47.581Z,9.6
2017-03-05T01:11:57.598Z,9.6
2017-03-05T01:12:07.154Z,9.6
2017-03-05T01:12:17.160Z,9.5
2017-03-05T01:12:27.849Z,9.5
2017-03-05T01:12:37.556Z,9.5
2017-03-05T01:12:47.824Z,9.5
2017-03-05T01:12:57.538Z,9.5
2017-03-05T01:13:07.541Z,9.5
2017-03-05T01:13:17.247Z,9.5
2017-03-05T01:13:27.528Z,9.5
2017-03-05T01:13:37.815Z,9.5
2017-03-05T01:13:47.511Z,9.5
2017-03-05T01:13:57.520Z,9.5
2017-03-05T01:14:07.078Z,9.5
2017-03-05T01:14:17.522Z,9.5
2017-03-05T01:14:27.773Z,9.5
2017-03-05T01:14:37.499Z,9.5
2017-03-05T01:14:47.466Z,9.5
2017-03-05T01:14:57.465Z,9.5
2017-03-05T01:15:07.474Z,9.5
2017-03-05T01:15:17.476Z,9.5
2017-03-05T01:15:27.461Z,9.5
2017-03-05T01:15:37.472Z,9.5
2017-03-05T01:15:47.726Z,9.6
2017-03-05T01:15:57.455Z,9.5
2017-03-05T01:16:06.583Z,9.5
2017-03-05T01:16:17.416Z,9.5
2017-03-05T01:16:27.015Z,9.5
2017-03-05T01:16:37.670Z,9.5
2017-03-05T01:16:47.686Z,9.6
2017-03-05T01:16:57.409Z,9.5
2017-03-05T01:17:07.392Z,9.5
2017-03-05T01:17:17.407Z,9.5
2017-03-05T01:17:27.669Z,9.5
2017-03-05T01:17:37.385Z,9.5
2017-03-05T01:17:47.372Z,9.5
2017-03-05T01:17:57.367Z,9.5
2017-03-05T01:18:06.930Z,9.5
2017-03-05T01:18:16.925Z,9.5
2017-03-05T01:18:26.916Z,9.5
2017-03-05T01:18:37.330Z,9.5
2017-03-05T01:18:47.336Z,9.4
2017-03-05T01:18:57.365Z,9.4
2017-03-05T01:19:07.330Z,9.4
2017-03-05T01:19:17.311Z,9.4
2017-03-05T01:19:27.323Z,9.4
2017-03-05T01:19:37.615Z,9.4
2017-03-05T01:19:47.296Z,9.4
2017-03-05T01:19:57.292Z,9.4
2017-03-05T01:20:07.291Z,9.4
2017-03-05T01:20:17.291Z,9.4
2017-03-05T01:20:26.863Z,9.5
2017-03-05T01:20:37.259Z,9.4
2017-03-05T01:20:46.833Z,9.4
2017-03-05T01:20:57.103Z,9.4
2017-03-05T01:21:07.265Z,9.4
2017-03-05T01:21:16.825Z,9.4
2017-03-05T01:21:26.829Z,9.4
2017-03-05T01:21:37.524Z,9.4
2017-03-05T01:21:47.488Z,9.3
2017-03-05T01:21:57.217Z,9.3
2017-03-05T01:22:07.224Z,9.3
2017-03-05T01:22:16.784Z,9.3
2017-03-05T01:22:26.774Z,9.3
2017-03-05T01:22:37.196Z,9.3
2017-03-05T01:22:47.191Z,9.3
2017-03-05T01:22:57.194Z,9.3
2017-03-05T01:23:07.454Z,9.3
2017-03-05T01:23:16.741Z,9.3
2017-03-05T01:23:26.753Z,9.3
2017-03-05T01:23:37.149Z,9.2
2017-03-05T01:23:47.146Z,9.2
2017-03-05T01:23:57.143Z,9.3
2017-03-05T01:24:07.136Z,9.3
2017-03-05T01:24:17.397Z,9.3
2017-03-05T01:24:27.119Z,9.2
2017-03-05T01:24:37.398Z,9.2
2017-03-05T01:24:47.110Z,9.2
2017-03-05T01:24:57.114Z,9.2
2017-03-05T01:25:07.105Z,9.2
2017-03-05T01:25:17.090Z,9.2
2017-03-05T01:25:27.089Z,9.2
2017-03-05T01:25:37.080Z,9.2
2017-03-05T01:25:47.360Z,9.1
2017-03-05T01:25:57.337Z,9.1
2017-03-05T01:26:06.639Z,9.1
2017-03-05T01:26:16.241Z,9.2
2017-03-05T01:26:27.052Z,9.1
2017-03-05T01:26:37.310Z,9.1
2017-03-05T01:26:47.053Z,9.1
2017-03-05T01:26:57.034Z,9.1
2017-03-05T01:27:07.040Z,9.1
2017-03-05T01:27:16.740Z,9.1
2017-03-05T01:27:27.023Z,9.1
2017-03-05T01:27:37.004Z,9.1
2017-03-05T01:27:47.013Z,9.1
2017-03-05T01:27:57.262Z,9.1
2017-03-05T01:28:06.996Z,9.1
2017-03-05T01:28:16.560Z,9.1
2017-03-05T01:28:26.964Z,9.1
2017-03-05T01:28:36.986Z,9.1
2017-03-05T01:28:46.975Z,9.1
2017-03-05T01:28:56.961Z,9.1
2017-03-05T01:29:06.951Z,9.1
2017-03-05T01:29:16.813Z,9.1
2017-03-05T01:29:26.948Z,9.1
2017-03-05T01:29:37.215Z,9.1
2017-03-05T01:29:46.933Z,9.1
2017-03-05T01:29:56.515Z,9.1
2017-03-05T01:30:06.910Z,9.2
2017-03-05T01:30:16.492Z,9.1
2017-03-05T01:30:26.916Z,9.2
2017-03-05T01:30:36.489Z,9.2
2017-03-05T01:30:46.891Z,9.2
2017-03-05T01:30:56.886Z,9.2
2017-03-05T01:31:06.892Z,9.1
2017-03-05T01:31:16.879Z,9.2
2017-03-05T01:31:26.861Z,9.2
2017-03-05T01:31:36.875Z,9.1
2017-03-05T01:31:46.857Z,9.1
2017-03-05T01:31:56.854Z,9.1
2017-03-05T01:32:06.872Z,9.1
2017-03-05T01:32:16.868Z,9.1
2017-03-05T01:32:25.999Z,9.1
2017-03-05T01:32:36.820Z,9.1
2017-03-05T01:32:47.115Z,9.1
2017-03-05T01:32:56.835Z,9.1
2017-03-05T01:33:06.384Z,9.1
2017-03-05T01:33:16.392Z,9.1
2017-03-05T01:33:26.799Z,9.1
2017-03-05T01:33:36.779Z,9.1
2017-03-05T01:33:46.801Z,9.1
2017-03-05T01:33:56.770Z,9.1
2017-03-05T01:34:06.791Z,9.1
2017-03-05T01:34:17.050Z,9.1
2017-03-05T01:34:26.334Z,9.1
2017-03-05T01:34:36.774Z,9.1
2017-03-05T01:34:46.755Z,9.1
2017-03-05T01:34:56.751Z,9.1
2017-03-05T01:35:06.759Z,9.1
2017-03-05T01:35:16.315Z,9.1
2017-03-05T01:35:26.715Z,9.1
2017-03-05T01:35:36.718Z,9.1
2017-03-05T01:35:46.704Z,9.1
2017-03-05T01:35:56.719Z,9.1
2017-03-05T01:36:06.712Z,9.1
2017-03-05T01:36:16.714Z,9.1
2017-03-05T01:36:27.388Z,9.1
2017-03-05T01:36:36.709Z,9.1
2017-03-05T01:36:46.694Z,9.1
2017-03-05T01:36:56.245Z,9.1
2017-03-05T01:37:06.661Z,9.1
2017-03-05T01:37:16.674Z,9.1
2017-03-05T01:37:26.650Z,9.1
2017-03-05T01:37:36.638Z,9.1
2017-03-05T01:37:46.626Z,9.1
2017-03-05T01:37:56.637Z,9.1
2017-03-05T01:38:06.619Z,9.1
2017-03-05T01:38:16.612Z,9
2017-03-05T01:38:26.182Z,9
2017-03-05T01:38:36.890Z,9
2017-03-05T01:38:46.607Z,9
2017-03-05T01:38:56.601Z,9
2017-03-05T01:39:06.586Z,9
2017-03-05T01:39:16.600Z,9
2017-03-05T01:39:26.582Z,9
2017-03-05T01:39:36.566Z,9
2017-03-05T01:39:46.574Z,9
2017-03-05T01:39:56.573Z,9
2017-03-05T01:40:06.557Z,9
2017-03-05T01:40:16.128Z,9
2017-03-05T01:40:26.536Z,9
2017-03-05T01:40:36.538Z,9
2017-03-05T01:40:46.537Z,9
2017-03-05T01:40:56.517Z,9
2017-03-05T01:41:06.512Z,9
2017-03-05T01:41:16.507Z,9
2017-03-05T01:41:26.513Z,9
2017-03-05T01:41:36.757Z,9
2017-03-05T01:41:46.498Z,9
2017-03-05T01:41:56.499Z,9
2017-03-05T01:42:06.484Z,9
2017-03-05T01:42:16.480Z,9
2017-03-05T01:42:26.461Z,8.9
2017-03-05T01:42:36.457Z,8.9
2017-03-05T01:42:46.035Z,8.9
2017-03-05T01:42:56.449Z,8.9
2017-03-05T01:43:06.728Z,8.9
2017-03-05T01:43:16.431Z,8.9
2017-03-05T01:43:26.454Z,8.9
2017-03-05T01:43:36.435Z,9
2017-03-05T01:43:46.426Z,8.9
2017-03-05T01:43:56.012Z,8.9
2017-03-05T01:44:06.005Z,8.9
2017-03-05T01:44:15.567Z,8.9
2017-03-05T01:44:25.961Z,8.9
2017-03-05T01:44:36.377Z,8.9
2017-03-05T01:44:46.375Z,9
2017-03-05T01:44:56.392Z,8.9
2017-03-05T01:45:06.376Z,9
2017-03-05T01:45:15.938Z,9
2017-03-05T01:45:26.362Z,9
2017-03-05T01:45:36.362Z,9
2017-03-05T01:45:46.348Z,9
2017-03-05T01:45:56.336Z,9
2017-03-05T01:46:05.904Z,9
2017-03-05T01:46:15.913Z,9
2017-03-05T01:46:26.318Z,9
2017-03-05T01:46:36.558Z,9
2017-03-05T01:46:46.310Z,9
2017-03-05T01:46:56.299Z,9
2017-03-05T01:47:06.289Z,9
2017-03-05T01:47:16.285Z,9
2017-03-05T01:47:26.279Z,9
2017-03-05T01:47:36.284Z,9
2017-03-05T01:47:46.302Z,9
2017-03-05T01:47:56.257Z,9
2017-03-05T01:48:06.257Z,9
2017-03-05T01:48:16.548Z,9
2017-03-05T01:48:26.262Z,9
2017-03-05T01:48:36.273Z,9
2017-03-05T01:48:46.245Z,9
2017-03-05T01:48:56.237Z,9
2017-03-05T01:49:06.215Z,9
2017-03-05T01:49:16.229Z,9
2017-03-05T01:49:26.782Z,9
2017-03-05T01:49:36.217Z,9
2017-03-05T01:49:46.206Z,9
2017-03-05T01:49:56.185Z,9
2017-03-05T01:50:06.190Z,9
2017-03-05T01:50:15.351Z,9
2017-03-05T01:50:26.174Z,9
2017-03-05T01:50:36.178Z,9
2017-03-05T01:50:46.036Z,9
2017-03-05T01:50:56.149Z,8.9
2017-03-05T01:51:06.141Z,8.9
2017-03-05T01:51:16.159Z,9
2017-03-05T01:51:26.129Z,9
2017-03-05T01:51:36.429Z,9
2017-03-05T01:51:46.132Z,9
2017-03-05T01:51:56.114Z,9
2017-03-05T01:52:06.116Z,9
2017-03-05T01:52:16.125Z,9
2017-03-05T01:52:26.097Z,9
2017-03-05T01:52:36.115Z,9
2017-03-05T01:52:46.078Z,9
2017-03-05T01:52:56.076Z,9
2017-03-05T01:53:06.090Z,9
2017-03-05T01:53:16.061Z,9
2017-03-05T01:53:26.054Z,9
2017-03-05T01:53:36.048Z,9
2017-03-05T01:53:45.637Z,9
2017-03-05T01:53:56.055Z,9
2017-03-05T01:54:05.635Z,9
2017-03-05T01:54:15.889Z,9
2017-03-05T01:54:26.019Z,9
2017-03-05T01:54:36.019Z,9
2017-03-05T01:54:45.600Z,9
2017-03-05T01:54:56.006Z,8.9
2017-03-05T01:55:05.999Z,8.9
2017-03-05T01:55:16.008Z,8.9
2017-03-05T01:55:25.598Z,8.9
2017-03-05T01:55:35.980Z,8.9
2017-03-05T01:55:45.968Z,8.9
2017-03-05T01:55:56.007Z,8.9
2017-03-05T01:56:05.965Z,8.9
2017-03-05T01:56:15.968Z,8.9
2017-03-05T01:56:25.953Z,8.9
2017-03-05T01:56:35.948Z,8.9
2017-03-05T01:56:45.961Z,8.9
2017-03-05T01:56:56.217Z,8.9
2017-03-05T01:57:05.937Z,8.9
2017-03-05T01:57:15.500Z,8.9
2017-03-05T01:57:25.912Z,8.9
2017-03-05T01:57:35.919Z,8.9
2017-03-05T01:57:45.909Z,8.9
2017-03-05T01:57:55.477Z,8.9
2017-03-05T01:58:06.185Z,8.9
2017-03-05T01:58:15.908Z,8.9
2017-03-05T01:58:26.161Z,8.9
2017-03-05T01:58:36.151Z,8.9
2017-03-05T01:58:45.864Z,8.9
2017-03-05T01:58:56.151Z,8.9
2017-03-05T01:59:05.860Z,8.9
2017-03-05T01:59:15.430Z,8.9
2017-03-05T01:59:25.452Z,8.9
2017-03-05T01:59:36.136Z,8.9
2017-03-05T01:59:46.108Z,8.9
2017-03-05T01:59:55.823Z,8.9
2017-03-05T02:00:05.816Z,8.9
2017-03-05T02:00:15.837Z,8.9
2017-03-05T02:00:25.811Z,8.9
2017-03-05T02:00:35.798Z,8.9
2017-03-05T02:00:45.807Z,8.9
2017-03-05T02:00:55.791Z,8.9
2017-03-05T02:01:05.781Z,8.9
2017-03-05T02:01:15.356Z,8.9
2017-03-05T02:01:25.632Z,8.9
2017-03-05T02:01:35.762Z,8.9
2017-03-05T02:01:46.053Z,8.9
2017-03-05T02:01:55.762Z,8.9
2017-03-05T02:02:05.768Z,8.9
2017-03-05T02:02:15.740Z,8.9
2017-03-05T02:02:25.732Z,8.9
2017-03-05T02:02:35.719Z,8.9
2017-03-05T02:02:45.719Z,8.9
2017-03-05T02:02:55.720Z,8.9
2017-03-05T02:03:05.729Z,8.9
2017-03-05T02:03:15.711Z,8.9
2017-03-05T02:03:25.704Z,8.9
2017-03-05T02:03:35.958Z,8.9
2017-03-05T02:03:45.681Z,8.8
2017-03-05T02:03:55.682Z,8.8
2017-03-05T02:04:05.670Z,8.9
2017-03-05T02:04:15.257Z,8.8
2017-03-05T02:04:25.659Z,8.8
2017-03-05T02:04:35.658Z,8.8
2017-03-05T02:04:45.643Z,8.8
2017-03-05T02:04:55.653Z,8.9
2017-03-05T02:05:05.635Z,8.9
2017-03-05T02:05:15.212Z,8.9
2017-03-05T02:05:25.632Z,8.9
2017-03-05T02:05:35.625Z,8.9
2017-03-05T02:05:45.605Z,8.9
2017-03-05T02:05:55.606Z,8.9
2017-03-05T02:06:05.599Z,8.9
2017-03-05T02:06:15.603Z,8.9
2017-03-05T02:06:25.163Z,8.9
2017-03-05T02:06:35.580Z,8.9
2017-03-05T02:06:45.647Z,8.9
2017-03-05T02:06:55.569Z,8.9
2017-03-05T02:07:05.694Z,8.9
2017-03-05T02:07:15.556Z,8.9
2017-03-05T02:07:25.544Z,8.9
2017-03-05T02:07:35.546Z,8.9
2017-03-05T02:07:45.557Z,8.9
2017-03-05T02:07:55.532Z,8.9
2017-03-05T02:08:05.103Z,8.9
2017-03-05T02:08:15.520Z,8.9
2017-03-05T02:08:25.100Z,8.9
2017-03-05T02:08:35.517Z,8.9
2017-03-05T02:08:45.506Z,8.8
2017-03-05T02:08:55.490Z,8.9
2017-03-05T02:09:05.500Z,8.9
2017-03-05T02:09:15.487Z,8.9
2017-03-05T02:09:25.485Z,8.9
2017-03-05T02:09:35.479Z,8.9
2017-03-05T02:09:45.475Z,8.9
2017-03-05T02:09:55.735Z,8.9
2017-03-05T02:10:05.073Z,8.9
2017-03-05T02:10:15.456Z,8.9
2017-03-05T02:10:25.709Z,8.9
2017-03-05T02:10:35.714Z,8.9
2017-03-05T02:10:45.713Z,8.9
2017-03-05T02:10:55.726Z,8.9
2017-03-05T02:11:05.429Z,8.9
2017-03-05T02:11:15.426Z,8.9
2017-03-05T02:11:25.411Z,8.9
2017-03-05T02:11:35.698Z,8.9
2017-03-05T02:11:45.392Z,8.9
2017-03-05T02:11:55.377Z,8.9
2017-03-05T02:12:05.393Z,8.9
2017-03-05T02:12:15.376Z,8.9
2017-03-05T02:12:25.668Z,8.9
2017-03-05T02:12:35.351Z,8.9
2017-03-05T02:12:45.351Z,8.9
2017-03-05T02:12:55.347Z,8.9
2017-03-05T02:13:05.336Z,8.9
2017-03-05T02:13:15.616Z,8.9
2017-03-05T02:13:24.916Z,8.9
2017-03-05T02:13:35.339Z,8.9
2017-03-05T02:13:45.320Z,8.9
2017-03-05T02:13:55.593Z,8.9
2017-03-05T02:14:05.302Z,8.9
2017-03-05T02:14:15.292Z,8.9
2017-03-05T02:14:25.296Z,8.9
2017-03-05T02:14:35.313Z,8.9
2017-03-05T02:14:45.297Z,8.9
2017-03-05T02:14:55.276Z,8.9
2017-03-05T02:15:05.282Z,8.9
2017-03-05T02:15:15.268Z,8.8
2017-03-05T02:15:25.568Z,8.9
2017-03-05T02:15:35.243Z,8.9
2017-03-05T02:15:45.243Z,8.9
2017-03-05T02:15:55.229Z,8.9
2017-03-05T02:16:05.228Z,8.9
2017-03-05T02:16:15.241Z,8.9
2017-03-05T02:16:25.225Z,8.9
2017-03-05T02:16:35.750Z,8.9
2017-03-05T02:16:45.205Z,8.9
2017-03-05T02:16:55.202Z,8.9
2017-03-05T02:17:05.060Z,8.9
2017-03-05T02:17:15.197Z,8.9
2017-03-05T02:17:25.196Z,8.9
2017-03-05T02:17:35.189Z,8.9
2017-03-05T02:17:45.183Z,8.9
2017-03-05T02:17:55.176Z,8.9
2017-03-05T02:18:05.169Z,8.9
2017-03-05T02:18:15.143Z,8.9
2017-03-05T02:18:25.139Z,8.9